Gorham, Kansas
Current Conditions -  °F | °C
As of 7:53 PM on Sunday 21 Dec 2014 (Local Time) from KRSL Reporting Station
Overcast Overcast  
Wind Chill: 35°   Ceiling: 11000
Heat Index: 42°   Visibility: 8mi
Dew Point: 40°   Wind: 15mph
Humidity: 92%   Direction: 180°S
Pressure: 29.61"   Gusts: NA
Location:  38.88°N, 99.02°W
Report Text: KRSL 220153Z AUTO 18013KT 8SM FEW025 OVC110 06/04 A2961 RMK AO2 SLP033 T00560044
Loading
Personal Weather Stations






























Interactive Weather Map New forecast layout! Learn more

10-Day Weather Forecast

Advertisements
Track Severe Weather on mobile